Time;durP1;ratioP1;P1;durP2;ratioP2;P2;SDS_P1;SDS_P2;PMS_P1;PMS_P2;Temp;Humidity;BMP_temperature;BMP_pressure;BME280_temperature;BME280_humidity;BME280_pressure;Samples;Min_cycle;Max_cycle;Signal;HPM_P1;HPM_P2
2022/03/07 00:00:08;;;;;;;10.45;4.72;;;1.40;99.90;;;;;;5079264;28;20052;-65
2022/03/07 00:02:33;;;;;;;8.00;4.93;;;1.30;99.90;;;;;;5084847;28;20056;-64
2022/03/07 00:04:59;;;;;;;8.50;5.13;;;1.30;99.90;;;;;;5073466;28;20036;-64
2022/03/07 00:07:24;;;;;;;10.70;5.60;;;1.30;99.90;;;;;;5074346;28;20171;-65
2022/03/07 00:09:50;;;;;;;8.00;5.20;;;1.20;99.90;;;;;;5073889;28;20079;-66
2022/03/07 00:12:15;;;;;;;9.88;5.38;;;1.20;99.90;;;;;;5075449;28;20079;-65
2022/03/07 00:14:41;;;;;;;9.75;5.50;;;1.20;99.90;;;;;;5074679;28;20032;-65
2022/03/07 00:17:06;;;;;;;9.77;5.50;;;1.20;99.90;;;;;;5076756;28;20092;-64
2022/03/07 00:19:32;;;;;;;10.35;5.38;;;1.10;99.90;;;;;;5074657;28;20458;-65
2022/03/07 00:21:57;;;;;;;9.52;5.40;;;1.10;99.90;;;;;;5072851;28;20047;-65
2022/03/07 00:24:23;;;;;;;8.35;5.53;;;1.00;99.90;;;;;;5071655;28;20043;-64
2022/03/07 00:26:49;;;;;;;8.77;5.25;;;1.00;99.90;;;;;;5071615;28;20491;-65
2022/03/07 00:29:15;;;;;;;8.95;5.45;;;1.00;99.90;;;;;;5073251;28;20224;-66
2022/03/07 00:31:41;;;;;;;8.68;5.22;;;1.00;99.90;;;;;;5075393;28;20123;-64
2022/03/07 00:34:06;;;;;;;10.13;6.20;;;0.90;99.90;;;;;;5080564;28;20060;-66
2022/03/07 00:36:32;;;;;;;8.98;5.53;;;0.90;99.90;;;;;;5083430;28;20040;-65
2022/03/07 00:38:57;;;;;;;10.30;7.10;;;0.90;99.90;;;;;;5081836;28;20480;-66
2022/03/07 00:41:23;;;;;;;9.30;6.00;;;0.80;99.90;;;;;;5082726;28;20129;-65
2022/03/07 00:43:48;;;;;;;11.50;6.60;;;0.80;99.90;;;;;;5078180;28;20045;-64
2022/03/07 00:46:15;;;;;;;10.63;6.53;;;0.70;99.90;;;;;;5083000;28;20040;-67
2022/03/07 00:48:40;;;;;;;10.43;6.57;;;0.70;99.90;;;;;;5083718;28;20062;-65
2022/03/07 00:51:06;;;;;;;9.80;6.35;;;0.70;99.90;;;;;;5078965;28;20419;-68
2022/03/07 00:53:31;;;;;;;9.10;6.05;;;0.60;99.90;;;;;;5083111;28;20118;-66
2022/03/07 00:55:57;;;;;;;9.32;6.22;;;0.60;99.90;;;;;;5082101;28;20048;-66
2022/03/07 00:58:23;;;;;;;9.65;5.80;;;0.60;99.90;;;;;;5089313;28;20055;-65
2022/03/07 01:00:49;;;;;;;9.80;5.93;;;0.60;99.90;;;;;;5092159;28;20044;-67
2022/03/07 01:03:17;;;;;;;9.38;5.72;;;0.60;99.90;;;;;;5080953;28;20088;-65
2022/03/07 01:05:44;;;;;;;10.90;5.97;;;0.60;99.90;;;;;;5077885;28;20043;-66
2022/03/07 01:08:10;;;;;;;9.80;5.45;;;0.60;99.90;;;;;;5081881;28;20044;-65
2022/03/07 01:10:36;;;;;;;9.40;5.80;;;0.60;99.90;;;;;;5080108;28;20493;-64
2022/03/07 01:13:01;;;;;;;9.45;6.13;;;0.50;99.90;;;;;;5080443;28;20047;-65
2022/03/07 01:15:27;;;;;;;10.82;5.45;;;0.50;99.90;;;;;;5083601;28;20106;-64
2022/03/07 01:17:54;;;;;;;10.02;5.70;;;0.50;99.90;;;;;;5116266;27;20036;-65
2022/03/07 01:20:20;;;;;;;9.85;5.57;;;0.50;99.90;;;;;;5080403;28;20040;-66
2022/03/07 01:22:46;;;;;;;9.68;5.55;;;0.40;99.90;;;;;;5081706;28;20044;-66
2022/03/07 01:25:12;;;;;;;9.10;5.65;;;0.40;99.90;;;;;;5082120;28;20048;-65
2022/03/07 01:27:37;;;;;;;12.23;5.80;;;0.40;99.90;;;;;;5083282;28;20500;-64
2022/03/07 01:30:04;;;;;;;11.00;6.45;;;0.40;99.90;;;;;;5094728;28;20130;-64
2022/03/07 01:32:30;;;;;;;11.90;6.68;;;0.30;99.90;;;;;;5089200;28;20043;-64
2022/03/07 01:34:55;;;;;;;9.63;6.20;;;0.30;99.90;;;;;;5093303;28;20036;-64
2022/03/07 01:37:21;;;;;;;9.50;6.25;;;0.30;99.90;;;;;;5095512;28;20070;-64
2022/03/07 01:39:47;;;;;;;10.07;6.75;;;0.30;99.90;;;;;;5096353;28;20039;-64
2022/03/07 01:42:12;;;;;;;11.95;7.22;;;0.30;99.90;;;;;;5095066;28;20376;-65
2022/03/07 01:44:38;;;;;;;12.40;7.72;;;0.30;99.90;;;;;;5094677;28;20047;-64
2022/03/07 01:47:05;;;;;;;13.15;7.25;;;0.20;99.90;;;;;;5095065;28;20096;-64
2022/03/07 01:49:30;;;;;;;14.18;8.88;;;0.20;99.90;;;;;;5095859;28;20059;-64
2022/03/07 01:51:56;;;;;;;12.68;8.50;;;0.20;99.90;;;;;;5078649;28;20035;-64
2022/03/07 01:54:23;;;;;;;13.93;8.73;;;0.20;99.90;;;;;;5100238;28;20123;-65
2022/03/07 01:56:50;;;;;;;12.90;7.90;;;0.10;99.90;;;;;;5095615;28;20044;-66
2022/03/07 01:59:21;;;;;;;14.90;8.23;;;0.10;99.90;;;;;;5090439;28;20043;-64
2022/03/07 02:01:47;;;;;;;12.18;8.00;;;0.10;99.90;;;;;;5091214;28;20462;-65
2022/03/07 02:04:13;;;;;;;13.57;7.97;;;0.00;99.90;;;;;;5106139;28;20138;-64
2022/03/07 02:06:40;;;;;;;12.02;7.10;;;0.00;99.90;;;;;;5090427;28;20044;-64
2022/03/07 02:09:07;;;;;;;10.65;6.95;;;0.00;99.90;;;;;;5094063;28;20032;-65
2022/03/07 02:11:34;;;;;;;12.30;7.05;;;0.10;99.90;;;;;;5088204;28;20036;-64
2022/03/07 02:14:22;;;;;;;13.10;7.63;;;0.00;99.90;;;;;;5088408;28;20040;-65
2022/03/07 02:16:48;;;;;;;13.00;7.55;;;0.00;99.90;;;;;;5088574;28;20147;-65
2022/03/07 02:19:14;;;;;;;12.48;7.55;;;0.00;99.90;;;;;;5090587;28;20117;-65
2022/03/07 02:21:46;;;;;;;13.32;7.72;;;-0.10;99.90;;;;;;5088978;28;20407;-66
2022/03/07 02:24:12;;;;;;;12.82;7.43;;;-0.10;99.90;;;;;;5082950;28;20068;-65
2022/03/07 02:26:39;;;;;;;11.90;7.82;;;-0.10;99.90;;;;;;5096030;28;20040;-65
2022/03/07 02:29:06;;;;;;;12.88;7.75;;;-0.10;99.90;;;;;;5082758;28;20044;-65
2022/03/07 02:31:34;;;;;;;14.00;8.25;;;-0.10;99.90;;;;;;5076678;28;20050;-66
2022/03/07 02:34:00;;;;;;;12.13;7.35;;;-0.10;99.90;;;;;;5091726;28;20078;-63
2022/03/07 02:36:26;;;;;;;14.82;8.02;;;-0.20;99.90;;;;;;5093874;28;20078;-64
2022/03/07 02:38:51;;;;;;;15.10;8.35;;;-0.20;99.90;;;;;;5081552;28;20040;-65
2022/03/07 02:41:17;;;;;;;14.00;8.05;;;-0.20;99.90;;;;;;5071939;28;20036;-64
2022/03/07 02:43:42;;;;;;;11.95;7.18;;;-0.20;99.90;;;;;;5084928;28;20822;-65
2022/03/07 02:46:08;;;;;;;12.88;7.40;;;-0.30;99.90;;;;;;5077952;28;20066;-64
2022/03/07 02:48:33;;;;;;;12.13;7.45;;;-0.20;99.90;;;;;;5077298;28;20178;-64
2022/03/07 02:50:59;;;;;;;11.20;7.60;;;-0.30;99.90;;;;;;5080608;28;20045;-66
2022/03/07 02:53:26;;;;;;;12.27;7.45;;;-0.30;99.90;;;;;;5081548;28;20370;-65
2022/03/07 02:55:51;;;;;;;12.32;7.75;;;-0.30;99.90;;;;;;5080605;28;20585;-64
2022/03/07 02:58:17;;;;;;;12.35;7.88;;;-0.30;99.90;;;;;;5088920;28;20115;-64
2022/03/07 03:00:43;;;;;;;12.48;8.02;;;-0.30;99.90;;;;;;5077414;28;20135;-63
2022/03/07 03:03:08;;;;;;;12.95;7.13;;;-0.30;99.90;;;;;;5089909;28;20131;-63
2022/03/07 03:05:34;;;;;;;12.13;8.15;;;-0.30;99.90;;;;;;5097595;28;20326;-64
2022/03/07 03:08:00;;;;;;;13.63;7.55;;;-0.40;99.90;;;;;;5086245;28;20486;-64
2022/03/07 03:10:25;;;;;;;11.85;7.13;;;-0.40;99.90;;;;;;5088096;28;20099;-64
2022/03/07 03:12:51;;;;;;;12.27;7.97;;;-0.40;99.90;;;;;;5077112;28;20044;-65
2022/03/07 03:15:17;;;;;;;12.77;7.93;;;-0.40;99.90;;;;;;5078248;28;20186;-64
2022/03/07 03:17:45;;;;;;;12.10;7.40;;;-0.40;99.90;;;;;;5088336;28;20073;-63
2022/03/07 03:20:13;;;;;;;10.38;7.22;;;-0.40;99.90;;;;;;5109766;27;20047;-64
2022/03/07 03:22:39;;;;;;;11.13;7.55;;;-0.40;99.90;;;;;;5106545;28;20485;-64
2022/03/07 03:25:06;;;;;;;11.20;7.15;;;-0.50;99.90;;;;;;5104631;28;20039;-64
2022/03/07 03:27:32;;;;;;;11.30;7.35;;;-0.50;99.90;;;;;;5089555;28;20097;-64
2022/03/07 03:29:58;;;;;;;11.38;7.68;;;-0.50;99.90;;;;;;5091323;28;20123;-65
2022/03/07 03:32:25;;;;;;;11.80;7.57;;;-0.50;99.90;;;;;;5094503;28;20047;-64
2022/03/07 03:34:50;;;;;;;11.38;7.28;;;-0.50;99.90;;;;;;5088662;28;20359;-64
2022/03/07 03:37:16;;;;;;;14.63;8.10;;;-0.50;99.90;;;;;;5095262;28;20077;-64
2022/03/07 03:39:41;;;;;;;14.75;7.05;;;-0.50;99.90;;;;;;5091957;28;20101;-67
2022/03/07 03:42:07;;;;;;;11.52;7.65;;;-0.50;99.90;;;;;;5101950;28;20042;-66
2022/03/07 03:44:33;;;;;;;12.55;7.38;;;-0.60;99.90;;;;;;5089232;28;20059;-64
2022/03/07 03:46:58;;;;;;;11.73;7.40;;;-0.60;99.90;;;;;;5088628;28;20071;-64
2022/03/07 03:49:24;;;;;;;12.25;6.80;;;-0.60;99.90;;;;;;5092031;28;20115;-64
2022/03/07 03:51:49;;;;;;;14.13;7.50;;;-0.60;99.90;;;;;;5089837;28;20506;-64
2022/03/07 03:54:15;;;;;;;11.68;7.38;;;-0.60;99.90;;;;;;5087616;28;20040;-64
2022/03/07 03:56:40;;;;;;;11.52;7.03;;;-0.60;99.90;;;;;;5090696;28;20157;-64
2022/03/07 03:59:06;;;;;;;13.18;7.57;;;-0.60;99.90;;;;;;5098624;28;20036;-65
2022/03/07 04:01:32;;;;;;;11.45;7.25;;;-0.70;99.90;;;;;;5094365;28;20456;-64
2022/03/07 04:03:57;;;;;;;12.48;7.28;;;-0.70;99.90;;;;;;5097195;28;20365;-64
2022/03/07 04:06:23;;;;;;;14.13;7.88;;;-0.70;99.90;;;;;;5090370;28;20140;-64
2022/03/07 04:08:56;;;;;;;12.75;7.78;;;-0.70;99.90;;;;;;5088882;28;20096;-64
2022/03/07 04:11:22;;;;;;;11.10;7.53;;;-0.70;99.90;;;;;;5089841;28;20043;-64
2022/03/07 04:13:47;;;;;;;13.10;7.50;;;-0.70;99.90;;;;;;5089916;28;20040;-64
2022/03/07 04:16:14;;;;;;;12.45;7.43;;;-0.70;99.90;;;;;;5084224;28;20046;-64
2022/03/07 04:18:40;;;;;;;14.05;8.35;;;-0.80;99.90;;;;;;5089840;28;20104;-64
2022/03/07 04:21:06;;;;;;;14.27;9.60;;;-0.80;99.90;;;;;;5088356;28;20600;-64
2022/03/07 04:23:31;;;;;;;13.30;8.77;;;-0.90;99.90;;;;;;5075871;28;20063;-66
2022/03/07 04:25:57;;;;;;;14.10;8.65;;;-0.90;99.90;;;;;;5086007;28;20076;-64
2022/03/07 04:28:23;;;;;;;12.02;7.47;;;-0.90;99.90;;;;;;5085685;28;20052;-64
2022/03/07 04:30:48;;;;;;;16.02;7.95;;;-0.90;99.90;;;;;;5077943;28;20390;-64
2022/03/07 04:33:14;;;;;;;12.25;7.95;;;-1.00;99.90;;;;;;5085385;28;20410;-66
2022/03/07 04:35:39;;;;;;;12.88;8.02;;;-1.00;99.90;;;;;;5083455;28;20041;-64
2022/03/07 04:38:05;;;;;;;12.20;7.28;;;-1.00;99.90;;;;;;5084258;28;20459;-63
2022/03/07 04:40:31;;;;;;;11.63;7.13;;;-1.00;99.90;;;;;;5082606;28;20041;-63
2022/03/07 04:42:56;;;;;;;10.43;6.53;;;-1.00;99.90;;;;;;5082329;28;20127;-64
2022/03/07 04:45:23;;;;;;;11.63;6.57;;;-1.00;99.90;;;;;;5085140;28;20055;-63
2022/03/07 04:47:49;;;;;;;11.40;6.10;;;-1.00;99.90;;;;;;5086167;28;20048;-63
2022/03/07 04:50:15;;;;;;;12.93;7.63;;;-1.00;99.90;;;;;;5105132;28;20032;-63
2022/03/07 04:52:42;;;;;;;10.75;7.57;;;-1.10;99.90;;;;;;5102302;28;20835;-64
2022/03/07 04:55:09;;;;;;;11.95;7.60;;;-1.20;99.90;;;;;;5094654;28;20123;-63
2022/03/07 04:57:35;;;;;;;10.98;7.15;;;-1.10;99.90;;;;;;5106424;28;20084;-63
2022/03/07 05:00:01;;;;;;;10.45;6.97;;;-1.20;99.90;;;;;;5084744;28;20040;-64
2022/03/07 05:02:26;;;;;;;11.30;7.43;;;-1.10;99.90;;;;;;5100319;28;20067;-65
2022/03/07 05:04:52;;;;;;;13.20;7.60;;;-1.10;99.90;;;;;;5100234;28;20036;-65
2022/03/07 05:07:17;;;;;;;10.00;6.82;;;-1.10;99.90;;;;;;5101256;28;20046;-64
2022/03/07 05:09:45;;;;;;;10.63;6.63;;;-1.10;99.90;;;;;;5100958;28;20127;-64
2022/03/07 05:12:10;;;;;;;12.75;7.25;;;-1.10;99.90;;;;;;5089607;28;20435;-63
2022/03/07 05:14:36;;;;;;;10.95;7.18;;;-1.10;99.90;;;;;;5095338;28;20127;-64
2022/03/07 05:17:01;;;;;;;12.35;7.07;;;-1.10;99.90;;;;;;5095904;28;20470;-65
2022/03/07 05:19:27;;;;;;;12.55;7.07;;;-1.10;99.90;;;;;;5103962;28;20051;-63
2022/03/07 05:21:53;;;;;;;12.82;7.70;;;-1.10;99.90;;;;;;5109551;28;20071;-64
2022/03/07 05:24:18;;;;;;;11.65;7.15;;;-1.10;99.90;;;;;;5109001;28;20089;-64
2022/03/07 05:26:44;;;;;;;11.82;7.60;;;-1.00;99.90;;;;;;5092793;28;20745;-65
2022/03/07 05:29:09;;;;;;;11.05;7.03;;;-1.10;99.90;;;;;;5098296;28;20031;-64
2022/03/07 05:31:35;;;;;;;13.40;8.00;;;-1.00;99.90;;;;;;5090249;28;20040;-64
2022/03/07 05:34:01;;;;;;;12.55;7.85;;;-1.00;99.90;;;;;;5090513;28;20355;-64
2022/03/07 05:36:27;;;;;;;11.82;8.13;;;-1.00;99.90;;;;;;5080001;28;20381;-66
2022/03/07 05:38:52;;;;;;;13.38;8.82;;;-1.00;99.90;;;;;;5105862;28;20047;-64
2022/03/07 05:41:18;;;;;;;12.85;7.78;;;-1.00;99.90;;;;;;5081071;28;20098;-63
2022/03/07 05:43:44;;;;;;;15.70;8.82;;;-1.00;99.90;;;;;;5092968;28;20394;-64
2022/03/07 05:46:09;;;;;;;11.57;8.00;;;-1.00;99.90;;;;;;5088540;28;20044;-64
2022/03/07 05:48:35;;;;;;;15.20;8.02;;;-1.00;99.90;;;;;;5084099;28;20444;-64
2022/03/07 05:51:00;;;;;;;15.05;8.25;;;-0.90;99.90;;;;;;5088521;28;20131;-64
2022/03/07 05:53:26;;;;;;;14.13;8.02;;;-0.90;99.90;;;;;;5090750;28;20111;-64
2022/03/07 05:55:52;;;;;;;12.52;7.65;;;-0.90;99.90;;;;;;5091167;28;20052;-65
2022/03/07 05:58:18;;;;;;;11.27;7.18;;;-0.90;99.90;;;;;;5092847;28;20040;-64
2022/03/07 06:00:44;;;;;;;11.90;7.45;;;-0.90;99.90;;;;;;5076864;28;20108;-64
2022/03/07 06:03:09;;;;;;;11.57;7.20;;;-0.90;99.90;;;;;;5093720;28;20114;-67
2022/03/07 06:05:35;;;;;;;11.98;7.57;;;-1.00;99.90;;;;;;5088659;28;20063;-64
2022/03/07 06:08:02;;;;;;;14.80;7.68;;;-1.00;99.90;;;;;;5088942;28;20474;-64
2022/03/07 06:10:28;;;;;;;13.68;7.93;;;-1.00;99.90;;;;;;5085337;28;20098;-66
2022/03/07 06:12:54;;;;;;;11.68;7.53;;;-1.00;99.90;;;;;;5085821;28;20048;-65
2022/03/07 06:15:20;;;;;;;13.65;7.75;;;-1.00;99.90;;;;;;5087400;28;20509;-66
2022/03/07 06:17:53;;;;;;;13.18;7.43;;;-1.00;99.90;;;;;;5085548;28;20083;-65
2022/03/07 06:20:20;;;;;;;13.60;7.82;;;-1.00;99.90;;;;;;5084378;28;20572;-66
2022/03/07 06:22:46;;;;;;;13.38;7.72;;;-1.00;99.90;;;;;;5086860;28;20036;-64
2022/03/07 06:25:12;;;;;;;11.43;7.65;;;-1.00;99.90;;;;;;5084993;28;20039;-65
2022/03/07 06:27:38;;;;;;;14.40;8.05;;;-0.90;99.90;;;;;;5085783;28;20063;-63
2022/03/07 06:30:04;;;;;;;11.45;7.90;;;-0.90;99.90;;;;;;5083768;28;20071;-63
2022/03/07 06:32:30;;;;;;;14.25;7.50;;;-0.90;99.90;;;;;;5094844;28;20123;-63
2022/03/07 06:34:55;;;;;;;13.05;7.90;;;-0.90;99.90;;;;;;5087799;28;20182;-64
2022/03/07 06:37:23;;;;;;;10.63;7.38;;;-0.90;99.90;;;;;;5086222;28;20041;-66
2022/03/07 06:39:49;;;;;;;13.82;8.32;;;-0.90;99.90;;;;;;5090855;28;20044;-63
2022/03/07 06:42:14;;;;;;;16.15;8.52;;;-0.90;99.90;;;;;;5099173;27;20093;-64
2022/03/07 06:44:40;;;;;;;13.00;7.60;;;-0.90;99.90;;;;;;5085915;28;20091;-63
2022/03/07 06:47:10;;;;;;;12.75;7.68;;;-0.80;99.90;;;;;;5082241;28;20138;-63
2022/03/07 06:49:35;;;;;;;13.68;8.18;;;-0.80;99.90;;;;;;5090682;28;20083;-67
2022/03/07 06:52:02;;;;;;;12.75;8.13;;;-0.70;99.90;;;;;;5090862;28;20068;-62
2022/03/07 06:54:27;;;;;;;14.68;8.13;;;-0.60;99.90;;;;;;5090476;28;20052;-63
2022/03/07 06:56:53;;;;;;;12.88;7.90;;;-0.50;99.90;;;;;;5090876;28;20040;-64
2022/03/07 06:59:18;;;;;;;12.73;8.38;;;-0.50;99.90;;;;;;5089597;28;20046;-63
2022/03/07 07:01:44;;;;;;;11.80;7.63;;;-0.40;99.90;;;;;;5086005;28;20115;-64
2022/03/07 07:04:09;;;;;;;13.35;7.65;;;-0.50;99.90;;;;;;5090379;28;20051;-64
2022/03/07 07:06:35;;;;;;;13.48;8.05;;;-0.50;99.90;;;;;;5089089;28;20085;-64
2022/03/07 07:09:01;;;;;;;11.38;7.93;;;-0.40;99.90;;;;;;5095586;28;20094;-64
2022/03/07 07:11:27;;;;;;;12.30;8.10;;;-0.40;99.90;;;;;;5118124;27;20058;-64
2022/03/07 07:13:52;;;;;;;12.48;7.57;;;-0.30;99.90;;;;;;5083808;28;20566;-64
2022/03/07 07:16:18;;;;;;;15.02;8.07;;;-0.30;99.90;;;;;;5082954;28;20132;-63
2022/03/07 07:18:43;;;;;;;12.70;7.88;;;-0.30;99.90;;;;;;5077822;28;20075;-63
2022/03/07 07:21:09;;;;;;;15.88;8.35;;;-0.30;99.90;;;;;;5083550;28;20036;-64
2022/03/07 07:23:36;;;;;;;10.80;7.32;;;-0.30;99.90;;;;;;5082915;28;20590;-64
2022/03/07 07:26:03;;;;;;;12.10;7.78;;;-0.20;99.90;;;;;;5082363;28;20044;-64
2022/03/07 07:28:29;;;;;;;14.65;9.10;;;-0.20;99.90;;;;;;5083405;28;20080;-65
2022/03/07 07:30:54;;;;;;;12.75;8.30;;;-0.20;99.90;;;;;;5082934;28;20080;-64
2022/03/07 07:33:20;;;;;;;13.73;9.90;;;-0.10;99.90;;;;;;5083493;28;20112;-63
2022/03/07 07:35:45;;;;;;;15.52;9.60;;;-0.10;99.90;;;;;;5084337;28;20117;-64
2022/03/07 07:38:11;;;;;;;13.68;9.95;;;0.00;99.90;;;;;;5084963;28;20036;-64
2022/03/07 07:40:36;;;;;;;14.70;10.00;;;0.00;99.90;;;;;;5081637;28;20394;-65
2022/03/07 07:43:02;;;;;;;18.30;11.32;;;0.00;99.90;;;;;;5084191;28;20470;-63
2022/03/07 07:45:28;;;;;;;16.40;10.77;;;0.10;99.90;;;;;;5082022;28;20112;-63
2022/03/07 07:47:54;;;;;;;21.50;14.38;;;0.10;99.90;;;;;;5082494;28;20048;-64
2022/03/07 07:50:20;;;;;;;22.58;14.15;;;0.20;99.90;;;;;;5081886;28;20464;-64
2022/03/07 07:52:46;;;;;;;21.42;13.77;;;0.30;99.90;;;;;;5083750;28;20072;-63
2022/03/07 07:55:12;;;;;;;23.63;13.65;;;0.40;99.90;;;;;;5084296;28;20028;-65
2022/03/07 07:57:39;;;;;;;18.92;12.70;;;0.50;99.90;;;;;;5084807;28;20115;-65
2022/03/07 08:00:07;;;;;;;20.92;13.55;;;0.50;99.90;;;;;;5080955;28;20397;-63
2022/03/07 08:02:33;;;;;;;20.25;13.75;;;0.50;99.90;;;;;;5081742;28;20442;-64
2022/03/07 08:04:59;;;;;;;20.05;13.82;;;0.60;99.90;;;;;;5083075;28;20122;-65
2022/03/07 08:07:25;;;;;;;19.98;13.48;;;0.60;99.90;;;;;;5082869;28;20501;-65
2022/03/07 08:09:51;;;;;;;23.75;15.25;;;0.70;99.90;;;;;;5080707;28;20080;-65
2022/03/07 08:12:18;;;;;;;20.30;14.05;;;0.70;99.90;;;;;;5084618;28;20083;-62
2022/03/07 08:14:44;;;;;;;22.50;14.82;;;0.80;99.90;;;;;;5083532;28;20500;-62
2022/03/07 08:17:11;;;;;;;20.60;13.30;;;0.80;99.90;;;;;;5079592;28;20080;-63
2022/03/07 08:19:37;;;;;;;23.08;15.98;;;0.90;99.90;;;;;;5082944;28;20055;-64
2022/03/07 08:22:03;;;;;;;21.65;13.30;;;1.00;99.90;;;;;;5081689;28;20044;-64
2022/03/07 08:24:29;;;;;;;19.75;13.63;;;1.00;99.90;;;;;;5087025;28;20128;-66
2022/03/07 08:26:54;;;;;;;21.27;14.25;;;1.10;99.90;;;;;;5080608;28;20128;-64
2022/03/07 08:29:20;;;;;;;22.55;15.07;;;1.20;99.90;;;;;;5081370;28;20405;-64
2022/03/07 08:31:46;;;;;;;21.85;14.00;;;1.20;99.90;;;;;;5083964;28;20094;-64
2022/03/07 08:34:11;;;;;;;20.23;13.77;;;1.30;99.90;;;;;;5063435;28;20131;-64
2022/03/07 08:36:37;;;;;;;21.48;13.85;;;1.40;99.90;;;;;;5081847;28;20252;-66
2022/03/07 08:39:03;;;;;;;22.10;14.00;;;1.40;99.90;;;;;;5083726;28;20092;-64
2022/03/07 08:41:28;;;;;;;19.75;13.35;;;1.50;99.90;;;;;;5081406;28;20101;-67
2022/03/07 08:43:55;;;;;;;20.20;12.93;;;1.50;99.90;;;;;;5109941;28;20404;-63
2022/03/07 08:46:21;;;;;;;19.05;12.13;;;1.60;99.90;;;;;;5085548;28;20044;-64
2022/03/07 08:48:46;;;;;;;19.73;12.45;;;1.70;99.90;;;;;;5084169;28;20044;-64
2022/03/07 08:51:12;;;;;;;19.40;12.68;;;1.80;99.90;;;;;;5080768;28;20040;-64
2022/03/07 08:53:37;;;;;;;18.95;11.20;;;1.90;99.90;;;;;;5084843;28;20032;-65
2022/03/07 08:56:03;;;;;;;15.70;11.45;;;2.00;99.90;;;;;;5088317;28;20068;-66
2022/03/07 08:58:29;;;;;;;14.65;10.55;;;2.10;99.90;;;;;;5085249;28;20036;-67
2022/03/07 09:00:54;;;;;;;15.88;10.57;;;2.20;99.90;;;;;;5088350;28;20042;-66
2022/03/07 09:03:20;;;;;;;14.90;10.07;;;2.30;99.90;;;;;;5085450;28;20064;-65
2022/03/07 09:05:45;;;;;;;15.02;10.00;;;2.40;99.90;;;;;;5075601;28;20064;-66
2022/03/07 09:08:11;;;;;;;14.65;9.18;;;2.50;99.90;;;;;;5090835;28;20062;-66
2022/03/07 09:10:36;;;;;;;14.35;9.70;;;2.60;99.90;;;;;;5091101;28;20792;-65
2022/03/07 09:13:02;;;;;;;15.13;9.55;;;2.60;99.90;;;;;;5091266;28;20040;-65
2022/03/07 09:15:28;;;;;;;13.68;9.05;;;2.80;99.90;;;;;;5092312;28;20050;-65
2022/03/07 09:17:54;;;;;;;13.23;9.15;;;2.90;99.90;;;;;;5091079;28;20401;-65
2022/03/07 09:20:20;;;;;;;14.40;9.48;;;3.00;99.90;;;;;;5124847;27;20044;-64
2022/03/07 09:22:46;;;;;;;14.45;9.15;;;3.10;99.90;;;;;;5091294;28;20076;-67
2022/03/07 09:25:13;;;;;;;12.77;8.18;;;3.20;99.90;;;;;;5073504;28;20043;-65
2022/03/07 09:27:39;;;;;;;12.15;7.57;;;3.40;99.90;;;;;;5092711;28;20052;-65
2022/03/07 09:30:06;;;;;;;12.40;6.15;;;3.50;99.90;;;;;;5093680;28;20458;-65
2022/03/07 09:32:32;;;;;;;10.82;7.07;;;3.60;99.90;;;;;;5077372;28;20052;-65
2022/03/07 09:34:58;;;;;;;11.35;7.43;;;3.60;99.90;;;;;;5085198;28;20035;-68
2022/03/07 09:37:23;;;;;;;12.30;7.05;;;3.70;99.90;;;;;;5076537;28;20076;-66
2022/03/07 09:39:49;;;;;;;12.60;7.40;;;3.80;99.90;;;;;;5096030;28;20049;-66
2022/03/07 09:42:15;;;;;;;12.65;7.40;;;3.90;99.90;;;;;;5077813;28;20438;-65
2022/03/07 09:44:41;;;;;;;13.05;7.50;;;4.00;99.90;;;;;;5071556;28;20051;-65
2022/03/07 09:47:07;;;;;;;12.98;7.75;;;4.00;99.90;;;;;;5081654;28;20447;-66
2022/03/07 09:49:33;;;;;;;10.88;7.38;;;4.10;99.90;;;;;;5088923;28;20401;-66
2022/03/07 09:51:59;;;;;;;11.25;7.20;;;4.20;99.90;;;;;;5082397;28;20033;-66
2022/03/07 09:54:24;;;;;;;11.00;6.95;;;4.30;99.90;;;;;;5069455;28;20048;-66
2022/03/07 09:56:51;;;;;;;11.20;6.60;;;4.30;99.90;;;;;;5076103;28;20040;-66
2022/03/07 09:59:18;;;;;;;8.95;5.57;;;4.40;99.90;;;;;;5071325;28;20049;-65
2022/03/07 10:01:45;;;;;;;8.82;5.57;;;4.50;99.90;;;;;;5081593;28;20080;-65
2022/03/07 10:04:13;;;;;;;9.45;6.00;;;4.60;99.90;;;;;;5077734;28;20036;-67
2022/03/07 10:06:47;;;;;;;9.50;5.78;;;4.60;99.90;;;;;;5081667;28;20237;-65
2022/03/07 10:09:19;;;;;;;10.25;6.10;;;4.60;99.90;;;;;;5079844;28;20043;-66
2022/03/07 10:11:54;;;;;;;9.40;6.47;;;4.70;99.90;;;;;;5089594;28;20040;-65
2022/03/07 10:14:37;;;;;;;9.88;6.03;;;4.70;99.90;;;;;;5070591;28;20052;-65
2022/03/07 10:17:03;;;;;;;7.93;5.15;;;4.80;99.90;;;;;;5071581;28;20131;-65
2022/03/07 10:19:29;;;;;;;8.75;5.00;;;4.80;99.90;;;;;;5084664;28;20199;-65
2022/03/07 10:21:55;;;;;;;7.75;4.40;;;4.90;99.90;;;;;;5089424;28;20044;-65
2022/03/07 10:24:34;;;;;;;8.68;4.80;;;5.00;99.90;;;;;;5082738;28;20048;-66
2022/03/07 10:27:00;;;;;;;7.50;4.47;;;5.00;99.90;;;;;;5079753;28;20068;-66
2022/03/07 10:29:26;;;;;;;7.78;4.85;;;5.00;99.90;;;;;;5083818;28;20052;-65
2022/03/07 10:31:51;;;;;;;10.90;4.80;;;5.10;99.90;;;;;;5070511;28;20044;-65
2022/03/07 10:34:17;;;;;;;9.23;4.65;;;5.10;99.90;;;;;;5076207;28;20078;-65
2022/03/07 10:36:45;;;;;;;8.15;4.32;;;5.10;99.90;;;;;;5089043;28;20060;-64
2022/03/07 10:39:13;;;;;;;7.35;3.88;;;5.20;99.90;;;;;;5086287;28;20048;-65
2022/03/07 10:41:45;;;;;;;6.57;3.75;;;5.30;99.90;;;;;;5097615;28;20067;-65
2022/03/07 10:44:23;;;;;;;7.93;4.10;;;5.40;99.90;;;;;;5069215;28;20116;-65
2022/03/07 10:46:49;;;;;;;8.98;4.63;;;5.50;99.90;;;;;;5102803;28;20098;-64
2022/03/07 10:49:17;;;;;;;6.93;4.20;;;5.60;99.90;;;;;;5080845;28;20422;-63
2022/03/07 10:51:53;;;;;;;7.75;4.45;;;5.60;99.90;;;;;;5087503;28;20040;-64
2022/03/07 10:54:20;;;;;;;8.60;4.00;;;5.80;99.90;;;;;;5083342;28;20080;-63
2022/03/07 10:56:54;;;;;;;7.68;4.72;;;5.90;99.90;;;;;;5084234;28;20049;-63
2022/03/07 10:59:31;;;;;;;11.52;4.82;;;6.00;99.90;;;;;;5072032;28;20059;-64
2022/03/07 11:02:11;;;;;;;10.05;4.93;;;6.20;99.90;;;;;;5090075;28;20048;-64
2022/03/07 11:04:38;;;;;;;8.95;4.35;;;6.30;99.90;;;;;;5113458;27;20370;-64
2022/03/07 11:07:05;;;;;;;7.43;4.40;;;6.40;99.90;;;;;;5069258;28;20525;-64
2022/03/07 11:09:30;;;;;;;7.18;4.32;;;6.50;99.90;;;;;;5068966;28;20065;-64
2022/03/07 11:11:57;;;;;;;6.75;4.40;;;6.60;99.90;;;;;;5075493;28;20044;-64
2022/03/07 11:14:25;;;;;;;8.60;4.30;;;6.60;99.90;;;;;;5085253;28;20530;-65
2022/03/07 11:16:56;;;;;;;10.27;4.25;;;6.60;99.90;;;;;;5068702;28;20040;-66
2022/03/07 11:19:23;;;;;;;6.50;3.58;;;6.70;99.90;;;;;;5086473;28;20082;-65
2022/03/07 11:21:51;;;;;;;7.45;3.90;;;6.60;99.90;;;;;;5071719;28;20044;-64
2022/03/07 11:24:19;;;;;;;6.60;4.05;;;6.60;99.50;;;;;;5070989;28;20045;-65
2022/03/07 11:26:46;;;;;;;7.90;3.83;;;6.60;99.50;;;;;;5088853;28;20044;-65
2022/03/07 11:29:11;;;;;;;7.15;3.42;;;6.70;99.00;;;;;;5089779;28;20430;-66
2022/03/07 11:31:39;;;;;;;5.28;3.05;;;6.70;98.80;;;;;;5072305;28;20041;-65
2022/03/07 11:34:10;;;;;;;5.55;3.20;;;6.70;97.50;;;;;;5085966;28;20105;-65
2022/03/07 11:36:37;;;;;;;6.88;3.55;;;6.60;98.50;;;;;;5088722;28;20050;-67
2022/03/07 11:39:04;;;;;;;8.13;3.40;;;6.60;98.00;;;;;;5088629;28;20071;-66
2022/03/07 11:41:39;;;;;;;6.75;3.75;;;6.60;99.20;;;;;;5053766;28;20132;-65
2022/03/07 11:44:07;;;;;;;8.13;3.35;;;6.60;98.60;;;;;;5101753;28;20433;-65
2022/03/07 11:46:47;;;;;;;6.90;3.50;;;6.70;97.30;;;;;;5068818;28;20421;-65
2022/03/07 11:49:26;;;;;;;5.75;3.00;;;6.90;96.20;;;;;;5095549;28;20044;-65
2022/03/07 11:52:03;;;;;;;6.63;3.80;;;7.00;95.30;;;;;;5075022;28;20044;-65
2022/03/07 11:54:28;;;;;;;6.22;2.97;;;7.10;94.60;;;;;;5068224;28;20104;-69
2022/03/07 11:57:07;;;;;;;6.88;3.42;;;7.20;94.00;;;;;;5090464;28;20048;-65
2022/03/07 11:59:33;;;;;;;8.45;3.78;;;7.30;93.30;;;;;;5084582;28;20499;-65
2022/03/07 12:01:59;;;;;;;9.15;2.97;;;7.30;93.50;;;;;;5073602;28;20080;-65
2022/03/07 12:04:24;;;;;;;7.93;3.88;;;7.40;93.30;;;;;;5068763;28;20075;-65
2022/03/07 12:06:52;;;;;;;8.10;3.85;;;7.50;93.40;;;;;;5075130;28;20036;-65
2022/03/07 12:09:25;;;;;;;7.40;3.92;;;7.60;93.40;;;;;;5088524;28;20040;-66
2022/03/07 12:12:14;;;;;;;8.63;3.65;;;7.70;93.50;;;;;;5075684;28;20048;-65
2022/03/07 12:14:44;;;;;;;6.90;3.22;;;7.70;92.80;;;;;;5085637;28;20040;-65
2022/03/07 12:17:13;;;;;;;7.88;3.08;;;7.70;92.10;;;;;;5080053;28;20478;-65
2022/03/07 12:19:40;;;;;;;4.43;2.38;;;7.70;92.50;;;;;;5078781;28;20052;-63
2022/03/07 12:22:11;;;;;;;7.25;3.00;;;7.70;90.90;;;;;;5074931;28;20512;-63
2022/03/07 12:24:37;;;;;;;5.10;2.90;;;7.60;90.40;;;;;;5067438;28;20048;-63
2022/03/07 12:27:03;;;;;;;4.82;2.63;;;7.60;89.10;;;;;;5076639;28;20040;-64
2022/03/07 12:29:29;;;;;;;5.50;2.80;;;7.60;91.10;;;;;;5087519;28;20048;-65
2022/03/07 12:31:56;;;;;;;6.05;2.50;;;7.50;90.80;;;;;;5080562;28;20580;-64
2022/03/07 12:34:24;;;;;;;6.32;2.80;;;7.50;90.70;;;;;;5067463;28;20355;-64
2022/03/07 12:37:04;;;;;;;6.00;2.35;;;7.40;90.90;;;;;;5072779;28;20493;-65
2022/03/07 12:39:41;;;;;;;4.93;2.05;;;7.40;84.50;;;;;;5082007;28;20202;-63
2022/03/07 12:42:07;;;;;;;5.75;2.15;;;7.40;86.20;;;;;;5071860;28;20040;-66